Pagrindinis puslapis
METAR-TAF:

METAR-TAF

Oro uostai :

Stambulas Atatiurkas, Turkija

platuma: 40-58N, ilguma: 028-49E, Aukštis: 48 m

Dabartinis oras

Ataskaita buvo paskelbta 30 minutes, ne 07:50 UTC
Vėjas 6 kt iš Rytų/Pietryčių
Temperatūra 10°C
Drėgmė 62%
Slėgis 1028 hPa
Matomumas 10 km arba daugiau
nėra debesų žemiau 1500 m ir nėra kamuolinių lietaus debesų

METAR: LTBA 060750Z 11006KT CAVOK 10/03 Q1028 NOSIG RMK RWY17L 09004KT 040V160 RWY05 11006KT 070V130 RWY23 12006KT

Laikas: 11:20 (08:20 UTC)

Prognozė

Ataskaita buvo paskelbta 3 valandos ir 40 minutes, ne 04:40 UTC
Prognozė galioja nuo 06 metu 06 UTC su 07 metu 12 UTC
Vėjas 5 kt iš Šiaurės Rytų
Matomumas 10 km arba daugiau
nėra debesų žemiau 1500 m ir nėra kamuolinių lietaus debesų
Tapsmas
nuo 07 metu 05 UTC su 07 metu 08 UTC
Vėjas 12 kt iš Pietų/Pietvakarių
Išsisklaidę debesys ne aukštis 3500 ft

TAF: LTBA 060440Z 0606/0712 05005KT CAVOK BECMG 0705/0708 20012KT SCT035

Orai ataskaitas ir orų prognozės (METAR, TAF).

turimą stotys yra geltonos ir raudonos taškus žemėlapyje.

Perkelti pele per norėdami pamatyti stoties vardą.

Tada spustelėkite, norėdami matyti oro stebėjimo ir prognozės.

Norėdami pakeisti žemėlapį: spustelėkite ant žalios mygtukų su juodo kryžiaus žemyn,; žalią mygtuką su brūkšneliu, jei norite nutolinti; arba žalių rodyklių gretimoms žemėlapius.


METAR-TAF: